sensor_id;sensor_type;location;lat;lon;timestamp;P1;durP1;ratioP1;P2;durP2;ratioP2
7729;SDS011;3908;52.310;7.230;2023-08-12T00:02:04;171.75;;;163.18;;
7729;SDS011;3908;52.310;7.230;2023-08-12T00:04:51;230.82;;;218.93;;
7729;SDS011;3908;52.310;7.230;2023-08-12T00:07:38;181.32;;;171.40;;
7729;SDS011;3908;52.310;7.230;2023-08-12T00:10:26;181.23;;;170.40;;
7729;SDS011;3908;52.310;7.230;2023-08-12T00:13:13;199.10;;;187.07;;
7729;SDS011;3908;52.310;7.230;2023-08-12T00:16:04;184.27;;;174.88;;
7729;SDS011;3908;52.310;7.230;2023-08-12T00:18:51;201.38;;;190.23;;
7729;SDS011;3908;52.310;7.230;2023-08-12T00:21:38;278.52;;;262.17;;
7729;SDS011;3908;52.310;7.230;2023-08-12T00:24:24;252.48;;;238.80;;
7729;SDS011;3908;52.310;7.230;2023-08-12T00:27:11;239.55;;;226.88;;
7729;SDS011;3908;52.310;7.230;2023-08-12T00:29:58;261.88;;;248.57;;
7729;SDS011;3908;52.310;7.230;2023-08-12T00:32:46;237.13;;;224.65;;
7729;SDS011;3908;52.310;7.230;2023-08-12T00:35:33;227.75;;;215.82;;
7729;SDS011;3908;52.310;7.230;2023-08-12T00:38:20;158.98;;;150.82;;
7729;SDS011;3908;52.310;7.230;2023-08-12T00:41:07;154.35;;;146.30;;
7729;SDS011;3908;52.310;7.230;2023-08-12T00:43:53;197.10;;;186.05;;
7729;SDS011;3908;52.310;7.230;2023-08-12T00:46:40;165.93;;;157.00;;
7729;SDS011;3908;52.310;7.230;2023-08-12T00:49:28;129.38;;;122.03;;
7729;SDS011;3908;52.310;7.230;2023-08-12T00:52:16;123.28;;;115.90;;
7729;SDS011;3908;52.310;7.230;2023-08-12T00:55:04;135.90;;;128.07;;
7729;SDS011;3908;52.310;7.230;2023-08-12T00:57:50;147.48;;;138.55;;
7729;SDS011;3908;52.310;7.230;2023-08-12T01:00:37;104.70;;;99.15;;
7729;SDS011;3908;52.310;7.230;2023-08-12T01:03:24;92.32;;;87.25;;
7729;SDS011;3908;52.310;7.230;2023-08-12T01:06:12;105.47;;;99.53;;
7729;SDS011;3908;52.310;7.230;2023-08-12T01:08:59;117.50;;;111.32;;
7729;SDS011;3908;52.310;7.230;2023-08-12T01:11:48;119.50;;;113.07;;
7729;SDS011;3908;52.310;7.230;2023-08-12T01:14:38;136.15;;;128.77;;
7729;SDS011;3908;52.310;7.230;2023-08-12T01:17:26;150.57;;;142.45;;
7729;SDS011;3908;52.310;7.230;2023-08-12T01:20:15;160.43;;;152.05;;
7729;SDS011;3908;52.310;7.230;2023-08-12T01:23:08;165.18;;;156.57;;
7729;SDS011;3908;52.310;7.230;2023-08-12T01:25:55;165.27;;;157.05;;
7729;SDS011;3908;52.310;7.230;2023-08-12T01:28:42;196.57;;;186.77;;
7729;SDS011;3908;52.310;7.230;2023-08-12T01:31:30;231.68;;;219.85;;
7729;SDS011;3908;52.310;7.230;2023-08-12T01:34:20;246.05;;;233.63;;
7729;SDS011;3908;52.310;7.230;2023-08-12T01:37:13;233.95;;;222.50;;
7729;SDS011;3908;52.310;7.230;2023-08-12T01:40:02;240.70;;;228.45;;
7729;SDS011;3908;52.310;7.230;2023-08-12T01:42:49;239.95;;;227.32;;
7729;SDS011;3908;52.310;7.230;2023-08-12T01:45:37;240.75;;;228.35;;
7729;SDS011;3908;52.310;7.230;2023-08-12T01:48:24;263.60;;;249.77;;
7729;SDS011;3908;52.310;7.230;2023-08-12T01:51:11;268.45;;;254.70;;
7729;SDS011;3908;52.310;7.230;2023-08-12T01:53:57;271.95;;;257.95;;
7729;SDS011;3908;52.310;7.230;2023-08-12T01:56:46;265.88;;;251.95;;
7729;SDS011;3908;52.310;7.230;2023-08-12T01:59:33;277.73;;;263.10;;
7729;SDS011;3908;52.310;7.230;2023-08-12T02:02:20;262.80;;;248.98;;
7729;SDS011;3908;52.310;7.230;2023-08-12T02:05:07;225.07;;;213.15;;
7729;SDS011;3908;52.310;7.230;2023-08-12T02:07:53;179.80;;;170.40;;
7729;SDS011;3908;52.310;7.230;2023-08-12T02:10:40;159.93;;;151.60;;
7729;SDS011;3908;52.310;7.230;2023-08-12T02:13:29;157.23;;;149.05;;
7729;SDS011;3908;52.310;7.230;2023-08-12T02:16:15;158.82;;;150.48;;
7729;SDS011;3908;52.310;7.230;2023-08-12T02:19:02;167.50;;;158.95;;
7729;SDS011;3908;52.310;7.230;2023-08-12T02:21:49;139.00;;;131.85;;
7729;SDS011;3908;52.310;7.230;2023-08-12T02:24:36;131.85;;;124.93;;
7729;SDS011;3908;52.310;7.230;2023-08-12T02:27:22;163.70;;;155.27;;
7729;SDS011;3908;52.310;7.230;2023-08-12T02:30:11;148.80;;;141.52;;
7729;SDS011;3908;52.310;7.230;2023-08-12T02:32:58;144.48;;;137.15;;
7729;SDS011;3908;52.310;7.230;2023-08-12T02:35:45;164.55;;;155.70;;
7729;SDS011;3908;52.310;7.230;2023-08-12T02:38:31;187.18;;;177.90;;
7729;SDS011;3908;52.310;7.230;2023-08-12T02:41:18;217.07;;;206.07;;
7729;SDS011;3908;52.310;7.230;2023-08-12T02:44:05;211.48;;;200.20;;
7729;SDS011;3908;52.310;7.230;2023-08-12T02:46:53;179.90;;;170.32;;
7729;SDS011;3908;52.310;7.230;2023-08-12T02:49:40;170.43;;;161.50;;
7729;SDS011;3908;52.310;7.230;2023-08-12T02:52:26;181.05;;;171.82;;
7729;SDS011;3908;52.310;7.230;2023-08-12T02:55:13;152.60;;;144.90;;
7729;SDS011;3908;52.310;7.230;2023-08-12T02:58:00;152.35;;;144.73;;
7729;SDS011;3908;52.310;7.230;2023-08-12T03:00:47;155.45;;;147.68;;
7729;SDS011;3908;52.310;7.230;2023-08-12T03:03:35;150.88;;;143.40;;
7729;SDS011;3908;52.310;7.230;2023-08-12T03:06:22;197.93;;;188.23;;
7729;SDS011;3908;52.310;7.230;2023-08-12T03:09:09;187.32;;;178.00;;
7729;SDS011;3908;52.310;7.230;2023-08-12T03:11:55;187.50;;;178.23;;
7729;SDS011;3908;52.310;7.230;2023-08-12T03:14:46;190.57;;;181.02;;
7729;SDS011;3908;52.310;7.230;2023-08-12T03:17:33;193.32;;;183.75;;
7729;SDS011;3908;52.310;7.230;2023-08-12T03:20:21;193.57;;;183.63;;
7729;SDS011;3908;52.310;7.230;2023-08-12T03:23:08;153.07;;;145.32;;
7729;SDS011;3908;52.310;7.230;2023-08-12T03:25:55;147.40;;;139.68;;
7729;SDS011;3908;52.310;7.230;2023-08-12T03:28:41;152.05;;;143.82;;
7729;SDS011;3908;52.310;7.230;2023-08-12T03:31:28;204.57;;;193.40;;
7729;SDS011;3908;52.310;7.230;2023-08-12T03:34:15;194.23;;;183.13;;
7729;SDS011;3908;52.310;7.230;2023-08-12T03:37:03;244.65;;;230.77;;
7729;SDS011;3908;52.310;7.230;2023-08-12T03:39:50;251.50;;;237.90;;
7729;SDS011;3908;52.310;7.230;2023-08-12T03:42:37;235.98;;;222.68;;
7729;SDS011;3908;52.310;7.230;2023-08-12T03:45:23;272.85;;;257.35;;
7729;SDS011;3908;52.310;7.230;2023-08-12T03:48:10;172.98;;;163.55;;
7729;SDS011;3908;52.310;7.230;2023-08-12T03:50:57;159.13;;;150.18;;
7729;SDS011;3908;52.310;7.230;2023-08-12T03:53:45;196.02;;;184.15;;
7729;SDS011;3908;52.310;7.230;2023-08-12T03:56:32;156.82;;;147.40;;
7729;SDS011;3908;52.310;7.230;2023-08-12T03:59:19;156.50;;;147.77;;
7729;SDS011;3908;52.310;7.230;2023-08-12T04:02:05;115.63;;;109.45;;
7729;SDS011;3908;52.310;7.230;2023-08-12T04:04:52;99.43;;;94.00;;
7729;SDS011;3908;52.310;7.230;2023-08-12T04:07:39;159.52;;;151.35;;
7729;SDS011;3908;52.310;7.230;2023-08-12T04:10:27;128.05;;;121.43;;
7729;SDS011;3908;52.310;7.230;2023-08-12T04:13:14;115.55;;;108.72;;
7729;SDS011;3908;52.310;7.230;2023-08-12T04:16:01;138.77;;;131.65;;
7729;SDS011;3908;52.310;7.230;2023-08-12T04:18:48;136.57;;;129.88;;
7729;SDS011;3908;52.310;7.230;2023-08-12T04:21:34;141.45;;;134.32;;
7729;SDS011;3908;52.310;7.230;2023-08-12T04:24:21;156.77;;;148.98;;
7729;SDS011;3908;52.310;7.230;2023-08-12T04:27:09;210.70;;;199.02;;
7729;SDS011;3908;52.310;7.230;2023-08-12T04:29:56;219.95;;;207.52;;
7729;SDS011;3908;52.310;7.230;2023-08-12T04:32:43;225.10;;;212.10;;
7729;SDS011;3908;52.310;7.230;2023-08-12T04:35:30;216.25;;;203.98;;
7729;SDS011;3908;52.310;7.230;2023-08-12T04:38:17;217.00;;;204.68;;
7729;SDS011;3908;52.310;7.230;2023-08-12T04:41:04;203.82;;;191.82;;
7729;SDS011;3908;52.310;7.230;2023-08-12T04:43:52;216.55;;;203.93;;
7729;SDS011;3908;52.310;7.230;2023-08-12T04:46:39;217.73;;;205.30;;
7729;SDS011;3908;52.310;7.230;2023-08-12T04:49:26;218.98;;;206.43;;
7729;SDS011;3908;52.310;7.230;2023-08-12T04:52:13;204.82;;;193.52;;
7729;SDS011;3908;52.310;7.230;2023-08-12T04:55:00;192.05;;;181.63;;
7729;SDS011;3908;52.310;7.230;2023-08-12T04:57:46;182.98;;;172.93;;
7729;SDS011;3908;52.310;7.230;2023-08-12T05:00:35;163.48;;;154.55;;
7729;SDS011;3908;52.310;7.230;2023-08-12T05:03:21;174.80;;;165.68;;
7729;SDS011;3908;52.310;7.230;2023-08-12T05:06:09;180.80;;;171.35;;
7729;SDS011;3908;52.310;7.230;2023-08-12T05:08:55;192.38;;;182.35;;
7729;SDS011;3908;52.310;7.230;2023-08-12T05:11:42;196.27;;;186.05;;
7729;SDS011;3908;52.310;7.230;2023-08-12T05:14:29;171.20;;;162.38;;
7729;SDS011;3908;52.310;7.230;2023-08-12T05:17:18;178.63;;;169.65;;
7729;SDS011;3908;52.310;7.230;2023-08-12T05:20:05;170.15;;;161.38;;
7729;SDS011;3908;52.310;7.230;2023-08-12T05:22:52;174.13;;;164.90;;
7729;SDS011;3908;52.310;7.230;2023-08-12T05:25:39;187.73;;;177.80;;
7729;SDS011;3908;52.310;7.230;2023-08-12T05:28:26;183.88;;;174.30;;
7729;SDS011;3908;52.310;7.230;2023-08-12T05:31:13;165.77;;;156.95;;
7729;SDS011;3908;52.310;7.230;2023-08-12T05:34:01;189.65;;;179.20;;
7729;SDS011;3908;52.310;7.230;2023-08-12T05:36:47;167.63;;;158.45;;
7729;SDS011;3908;52.310;7.230;2023-08-12T05:39:34;171.18;;;161.80;;
7729;SDS011;3908;52.310;7.230;2023-08-12T05:42:21;168.70;;;159.52;;
7729;SDS011;3908;52.310;7.230;2023-08-12T05:45:08;179.30;;;169.90;;
7729;SDS011;3908;52.310;7.230;2023-08-12T05:47:55;172.60;;;163.65;;
7729;SDS011;3908;52.310;7.230;2023-08-12T05:50:43;188.45;;;178.48;;
7729;SDS011;3908;52.310;7.230;2023-08-12T05:53:30;207.40;;;196.05;;
7729;SDS011;3908;52.310;7.230;2023-08-12T05:56:17;186.80;;;176.95;;
7729;SDS011;3908;52.310;7.230;2023-08-12T05:59:04;194.05;;;183.85;;
7729;SDS011;3908;52.310;7.230;2023-08-12T06:01:51;183.25;;;173.93;;
7729;SDS011;3908;52.310;7.230;2023-08-12T06:04:38;198.88;;;188.23;;
7729;SDS011;3908;52.310;7.230;2023-08-12T06:07:26;197.32;;;186.50;;
7729;SDS011;3908;52.310;7.230;2023-08-12T06:10:13;188.85;;;178.68;;
7729;SDS011;3908;52.310;7.230;2023-08-12T06:13:00;200.63;;;190.05;;
7729;SDS011;3908;52.310;7.230;2023-08-12T06:15:47;202.80;;;192.35;;
7729;SDS011;3908;52.310;7.230;2023-08-12T06:18:33;222.15;;;210.13;;
7729;SDS011;3908;52.310;7.230;2023-08-12T06:21:20;203.57;;;192.93;;
7729;SDS011;3908;52.310;7.230;2023-08-12T06:24:08;199.77;;;189.63;;
7729;SDS011;3908;52.310;7.230;2023-08-12T06:26:55;218.80;;;207.10;;
7729;SDS011;3908;52.310;7.230;2023-08-12T06:29:42;257.65;;;243.85;;
7729;SDS011;3908;52.310;7.230;2023-08-12T06:32:29;252.27;;;237.43;;
7729;SDS011;3908;52.310;7.230;2023-08-12T06:35:16;249.32;;;234.48;;
7729;SDS011;3908;52.310;7.230;2023-08-12T06:38:03;248.63;;;233.88;;
7729;SDS011;3908;52.310;7.230;2023-08-12T06:40:51;256.80;;;241.32;;
7729;SDS011;3908;52.310;7.230;2023-08-12T06:43:38;240.35;;;226.20;;
7729;SDS011;3908;52.310;7.230;2023-08-12T06:46:24;253.90;;;238.98;;
7729;SDS011;3908;52.310;7.230;2023-08-12T06:49:11;267.38;;;251.45;;
7729;SDS011;3908;52.310;7.230;2023-08-12T06:51:58;266.40;;;250.63;;
7729;SDS011;3908;52.310;7.230;2023-08-12T06:54:45;289.83;;;272.13;;
7729;SDS011;3908;52.310;7.230;2023-08-12T06:57:33;240.43;;;225.63;;
7729;SDS011;3908;52.310;7.230;2023-08-12T07:00:20;109.13;;;103.82;;
7729;SDS011;3908;52.310;7.230;2023-08-12T07:03:06;121.40;;;114.93;;
7729;SDS011;3908;52.310;7.230;2023-08-12T07:05:53;168.30;;;160.30;;
7729;SDS011;3908;52.310;7.230;2023-08-12T07:08:40;129.18;;;122.25;;
7729;SDS011;3908;52.310;7.230;2023-08-12T07:11:27;116.35;;;110.10;;
7729;SDS011;3908;52.310;7.230;2023-08-12T07:14:15;111.72;;;105.72;;
7729;SDS011;3908;52.310;7.230;2023-08-12T07:17:01;120.35;;;114.15;;
7729;SDS011;3908;52.310;7.230;2023-08-12T07:19:48;123.65;;;117.40;;
7729;SDS011;3908;52.310;7.230;2023-08-12T07:22:35;140.32;;;133.02;;
7729;SDS011;3908;52.310;7.230;2023-08-12T07:25:22;139.40;;;132.40;;
7729;SDS011;3908;52.310;7.230;2023-08-12T07:28:08;147.90;;;140.23;;
7729;SDS011;3908;52.310;7.230;2023-08-12T07:30:57;156.68;;;148.45;;
7729;SDS011;3908;52.310;7.230;2023-08-12T07:33:43;142.65;;;135.55;;
7729;SDS011;3908;52.310;7.230;2023-08-12T07:36:31;117.53;;;111.07;;
7729;SDS011;3908;52.310;7.230;2023-08-12T07:39:18;106.60;;;99.75;;
7729;SDS011;3908;52.310;7.230;2023-08-12T07:42:05;122.78;;;115.35;;
7729;SDS011;3908;52.310;7.230;2023-08-12T07:44:52;134.52;;;126.50;;
7729;SDS011;3908;52.310;7.230;2023-08-12T07:47:40;184.32;;;172.88;;
7729;SDS011;3908;52.310;7.230;2023-08-12T07:50:27;203.10;;;190.68;;
7729;SDS011;3908;52.310;7.230;2023-08-12T07:53:14;207.02;;;193.68;;
7729;SDS011;3908;52.310;7.230;2023-08-12T07:56:01;187.75;;;176.02;;
7729;SDS011;3908;52.310;7.230;2023-08-12T07:58:47;224.93;;;210.90;;
7729;SDS011;3908;52.310;7.230;2023-08-12T08:01:34;242.35;;;228.30;;
7729;SDS011;3908;52.310;7.230;2023-08-12T08:04:22;246.73;;;232.52;;
7729;SDS011;3908;52.310;7.230;2023-08-12T08:07:10;272.55;;;256.52;;
7729;SDS011;3908;52.310;7.230;2023-08-12T08:09:57;272.65;;;256.10;;
7729;SDS011;3908;52.310;7.230;2023-08-12T08:12:44;281.90;;;264.35;;
7729;SDS011;3908;52.310;7.230;2023-08-12T08:15:30;283.58;;;265.80;;
7729;SDS011;3908;52.310;7.230;2023-08-12T08:18:17;274.85;;;258.20;;
7729;SDS011;3908;52.310;7.230;2023-08-12T08:21:05;273.60;;;256.83;;
7729;SDS011;3908;52.310;7.230;2023-08-12T08:23:52;272.05;;;255.55;;
7729;SDS011;3908;52.310;7.230;2023-08-12T08:26:39;289.95;;;272.35;;
7729;SDS011;3908;52.310;7.230;2023-08-12T08:29:26;282.08;;;265.52;;
7729;SDS011;3908;52.310;7.230;2023-08-12T08:32:13;297.58;;;279.70;;
7729;SDS011;3908;52.310;7.230;2023-08-12T08:35:00;303.45;;;285.02;;
7729;SDS011;3908;52.310;7.230;2023-08-12T08:37:48;312.08;;;293.02;;
7729;SDS011;3908;52.310;7.230;2023-08-12T08:40:36;322.35;;;302.73;;
7729;SDS011;3908;52.310;7.230;2023-08-12T08:43:22;328.75;;;308.75;;
7729;SDS011;3908;52.310;7.230;2023-08-12T08:46:10;318.02;;;298.75;;
7729;SDS011;3908;52.310;7.230;2023-08-12T08:48:58;262.70;;;246.55;;
7729;SDS011;3908;52.310;7.230;2023-08-12T08:51:46;236.32;;;222.48;;
7729;SDS011;3908;52.310;7.230;2023-08-12T08:54:34;226.45;;;212.93;;
7729;SDS011;3908;52.310;7.230;2023-08-12T08:57:21;248.07;;;233.05;;
7729;SDS011;3908;52.310;7.230;2023-08-12T09:00:08;220.02;;;207.05;;
7729;SDS011;3908;52.310;7.230;2023-08-12T09:02:56;221.32;;;208.85;;
7729;SDS011;3908;52.310;7.230;2023-08-12T09:05:43;262.17;;;246.82;;
7729;SDS011;3908;52.310;7.230;2023-08-12T09:08:31;273.90;;;257.73;;
7729;SDS011;3908;52.310;7.230;2023-08-12T09:11:20;283.85;;;267.40;;
7729;SDS011;3908;52.310;7.230;2023-08-12T09:14:07;218.77;;;206.98;;
7729;SDS011;3908;52.310;7.230;2023-08-12T09:16:54;198.23;;;187.50;;
7729;SDS011;3908;52.310;7.230;2023-08-12T09:19:42;182.35;;;172.85;;
7729;SDS011;3908;52.310;7.230;2023-08-12T09:22:28;227.68;;;215.30;;
7729;SDS011;3908;52.310;7.230;2023-08-12T09:25:15;193.10;;;182.93;;
7729;SDS011;3908;52.310;7.230;2023-08-12T09:28:04;176.20;;;166.45;;
7729;SDS011;3908;52.310;7.230;2023-08-12T09:30:50;312.63;;;295.58;;
7729;SDS011;3908;52.310;7.230;2023-08-12T09:33:38;193.52;;;184.23;;
7729;SDS011;3908;52.310;7.230;2023-08-12T09:36:27;159.50;;;150.77;;
7729;SDS011;3908;52.310;7.230;2023-08-12T09:39:14;177.48;;;167.27;;
7729;SDS011;3908;52.310;7.230;2023-08-12T09:42:01;154.98;;;146.48;;
7729;SDS011;3908;52.310;7.230;2023-08-12T09:44:50;136.27;;;129.15;;
7729;SDS011;3908;52.310;7.230;2023-08-12T09:47:37;142.43;;;135.05;;
7729;SDS011;3908;52.310;7.230;2023-08-12T09:50:27;134.70;;;127.70;;
7729;SDS011;3908;52.310;7.230;2023-08-12T09:53:14;124.32;;;118.18;;
7729;SDS011;3908;52.310;7.230;2023-08-12T09:56:06;119.80;;;113.90;;
7729;SDS011;3908;52.310;7.230;2023-08-12T09:58:53;226.07;;;215.00;;
7729;SDS011;3908;52.310;7.230;2023-08-12T10:01:41;242.25;;;230.07;;
7729;SDS011;3908;52.310;7.230;2023-08-12T10:04:33;312.20;;;295.95;;
7729;SDS011;3908;52.310;7.230;2023-08-12T10:07:22;350.33;;;331.60;;
7729;SDS011;3908;52.310;7.230;2023-08-12T10:10:09;340.23;;;322.65;;
7729;SDS011;3908;52.310;7.230;2023-08-12T10:12:56;336.40;;;319.27;;
7729;SDS011;3908;52.310;7.230;2023-08-12T10:15:43;319.42;;;302.90;;
7729;SDS011;3908;52.310;7.230;2023-08-12T10:18:32;307.55;;;290.85;;
7729;SDS011;3908;52.310;7.230;2023-08-12T10:21:19;297.42;;;281.83;;
7729;SDS011;3908;52.310;7.230;2023-08-12T10:24:07;316.63;;;299.80;;
7729;SDS011;3908;52.310;7.230;2023-08-12T10:26:54;287.63;;;273.15;;
7729;SDS011;3908;52.310;7.230;2023-08-12T10:29:42;316.40;;;300.17;;
7729;SDS011;3908;52.310;7.230;2023-08-12T10:32:28;300.85;;;285.88;;
7729;SDS011;3908;52.310;7.230;2023-08-12T10:35:17;239.23;;;226.95;;
7729;SDS011;3908;52.310;7.230;2023-08-12T10:38:05;239.93;;;226.57;;
7729;SDS011;3908;52.310;7.230;2023-08-12T10:40:51;191.57;;;180.48;;
7729;SDS011;3908;52.310;7.230;2023-08-12T10:43:48;191.40;;;181.52;;
7729;SDS011;3908;52.310;7.230;2023-08-12T10:46:35;181.73;;;172.95;;
7729;SDS011;3908;52.310;7.230;2023-08-12T10:49:22;239.70;;;227.05;;
7729;SDS011;3908;52.310;7.230;2023-08-12T10:52:19;250.35;;;237.35;;
7729;SDS011;3908;52.310;7.230;2023-08-12T10:55:19;265.95;;;251.68;;
7729;SDS011;3908;52.310;7.230;2023-08-12T10:58:08;319.67;;;302.95;;
7729;SDS011;3908;52.310;7.230;2023-08-12T11:00:55;162.68;;;155.40;;
7729;SDS011;3908;52.310;7.230;2023-08-12T11:03:42;149.75;;;142.98;;
7729;SDS011;3908;52.310;7.230;2023-08-12T11:06:29;160.60;;;153.27;;
7729;SDS011;3908;52.310;7.230;2023-08-12T11:09:17;272.58;;;259.45;;
7729;SDS011;3908;52.310;7.230;2023-08-12T11:12:05;290.38;;;276.40;;
7729;SDS011;3908;52.310;7.230;2023-08-12T11:14:53;160.35;;;152.68;;
7729;SDS011;3908;52.310;7.230;2023-08-12T11:17:40;124.53;;;118.68;;
7729;SDS011;3908;52.310;7.230;2023-08-12T11:20:27;154.60;;;146.70;;
7729;SDS011;3908;52.310;7.230;2023-08-12T11:23:15;156.70;;;148.70;;
7729;SDS011;3908;52.310;7.230;2023-08-12T11:31:06;200.73;;;191.10;;
7729;SDS011;3908;52.310;7.230;2023-08-12T11:33:52;220.57;;;209.57;;
7729;SDS011;3908;52.310;7.230;2023-08-12T11:36:39;249.40;;;237.18;;
7729;SDS011;3908;52.310;7.230;2023-08-12T11:39:28;160.18;;;152.13;;
7729;SDS011;3908;52.310;7.230;2023-08-12T11:42:14;197.13;;;187.00;;
7729;SDS011;3908;52.310;7.230;2023-08-12T11:45:01;157.88;;;149.70;;
7729;SDS011;3908;52.310;7.230;2023-08-12T11:47:50;164.98;;;155.73;;
7729;SDS011;3908;52.310;7.230;2023-08-12T11:50:38;339.35;;;320.30;;
7729;SDS011;3908;52.310;7.230;2023-08-12T11:53:26;353.00;;;330.85;;
7729;SDS011;3908;52.310;7.230;2023-08-12T11:56:13;225.38;;;211.82;;
7729;SDS011;3908;52.310;7.230;2023-08-12T11:59:00;153.70;;;146.23;;
7729;SDS011;3908;52.310;7.230;2023-08-12T12:01:48;264.45;;;248.63;;
7729;SDS011;3908;52.310;7.230;2023-08-12T12:04:36;321.05;;;301.42;;
7729;SDS011;3908;52.310;7.230;2023-08-12T12:07:23;326.73;;;305.42;;
7729;SDS011;3908;52.310;7.230;2023-08-12T12:10:12;304.52;;;285.02;;
7729;SDS011;3908;52.310;7.230;2023-08-12T12:12:59;362.00;;;340.30;;
7729;SDS011;3908;52.310;7.230;2023-08-12T12:15:46;330.52;;;311.05;;
7729;SDS011;3908;52.310;7.230;2023-08-12T12:18:33;347.45;;;326.58;;
7729;SDS011;3908;52.310;7.230;2023-08-12T12:21:23;306.35;;;287.00;;
7729;SDS011;3908;52.310;7.230;2023-08-12T12:30:03;197.25;;;188.35;;
7729;SDS011;3908;52.310;7.230;2023-08-12T12:32:49;165.38;;;157.60;;
7729;SDS011;3908;52.310;7.230;2023-08-12T12:35:38;173.20;;;164.60;;
7729;SDS011;3908;52.310;7.230;2023-08-12T12:44:24;173.52;;;165.40;;
7729;SDS011;3908;52.310;7.230;2023-08-12T12:47:10;164.00;;;155.82;;
7729;SDS011;3908;52.310;7.230;2023-08-12T12:49:57;134.13;;;128.45;;
7729;SDS011;3908;52.310;7.230;2023-08-12T12:52:44;128.73;;;123.03;;
7729;SDS011;3908;52.310;7.230;2023-08-12T12:55:31;67.35;;;64.22;;
7729;SDS011;3908;52.310;7.230;2023-08-12T12:58:18;148.30;;;140.52;;
7729;SDS011;3908;52.310;7.230;2023-08-12T13:01:09;400.40;;;374.85;;
7729;SDS011;3908;52.310;7.230;2023-08-12T13:03:56;182.43;;;173.27;;
7729;SDS011;3908;52.310;7.230;2023-08-12T13:06:42;206.40;;;195.02;;
7729;SDS011;3908;52.310;7.230;2023-08-12T13:09:29;292.52;;;276.23;;
7729;SDS011;3908;52.310;7.230;2023-08-12T13:12:16;303.77;;;286.90;;
7729;SDS011;3908;52.310;7.230;2023-08-12T13:15:03;279.75;;;265.73;;
7729;SDS011;3908;52.310;7.230;2023-08-12T13:17:53;262.13;;;248.88;;
7729;SDS011;3908;52.310;7.230;2023-08-12T13:20:40;251.55;;;239.25;;
7729;SDS011;3908;52.310;7.230;2023-08-12T13:23:27;235.27;;;224.18;;
7729;SDS011;3908;52.310;7.230;2023-08-12T13:26:13;244.35;;;231.18;;
7729;SDS011;3908;52.310;7.230;2023-08-12T13:29:02;266.45;;;250.43;;
7729;SDS011;3908;52.310;7.230;2023-08-12T13:31:49;297.33;;;280.95;;
7729;SDS011;3908;52.310;7.230;2023-08-12T13:34:38;263.40;;;250.73;;
7729;SDS011;3908;52.310;7.230;2023-08-12T13:37:25;96.65;;;92.60;;
7729;SDS011;3908;52.310;7.230;2023-08-12T13:40:11;155.48;;;149.20;;
7729;SDS011;3908;52.310;7.230;2023-08-12T13:43:00;100.03;;;95.43;;
7729;SDS011;3908;52.310;7.230;2023-08-12T13:45:47;65.43;;;62.33;;
7729;SDS011;3908;52.310;7.230;2023-08-12T13:48:33;54.38;;;52.03;;
7729;SDS011;3908;52.310;7.230;2023-08-12T13:51:22;52.83;;;50.45;;
7729;SDS011;3908;52.310;7.230;2023-08-12T13:54:08;44.97;;;43.03;;
7729;SDS011;3908;52.310;7.230;2023-08-12T13:56:55;33.90;;;32.28;;
7729;SDS011;3908;52.310;7.230;2023-08-12T13:59:42;35.72;;;34.10;;
7729;SDS011;3908;52.310;7.230;2023-08-12T14:02:29;36.85;;;35.17;;
7729;SDS011;3908;52.310;7.230;2023-08-12T14:05:16;124.82;;;118.82;;
7729;SDS011;3908;52.310;7.230;2023-08-12T14:08:09;252.43;;;237.90;;
7729;SDS011;3908;52.310;7.230;2023-08-12T14:10:56;213.85;;;203.02;;
7729;SDS011;3908;52.310;7.230;2023-08-12T14:13:43;208.30;;;195.77;;
7729;SDS011;3908;52.310;7.230;2023-08-12T14:16:29;201.15;;;189.55;;
7729;SDS011;3908;52.310;7.230;2023-08-12T14:19:16;244.18;;;230.52;;
7729;SDS011;3908;52.310;7.230;2023-08-12T14:22:04;292.00;;;275.75;;
7729;SDS011;3908;52.310;7.230;2023-08-12T14:24:52;282.15;;;268.55;;
7729;SDS011;3908;52.310;7.230;2023-08-12T14:27:39;329.92;;;312.15;;
7729;SDS011;3908;52.310;7.230;2023-08-12T14:30:26;325.42;;;308.75;;
7729;SDS011;3908;52.310;7.230;2023-08-12T14:33:13;329.35;;;311.30;;
7729;SDS011;3908;52.310;7.230;2023-08-12T14:36:00;312.08;;;294.08;;
7729;SDS011;3908;52.310;7.230;2023-08-12T14:38:47;294.45;;;279.80;;
7729;SDS011;3908;52.310;7.230;2023-08-12T14:41:35;260.60;;;248.68;;
7729;SDS011;3908;52.310;7.230;2023-08-12T14:44:22;260.58;;;248.50;;
7729;SDS011;3908;52.310;7.230;2023-08-12T14:47:09;279.77;;;266.80;;
7729;SDS011;3908;52.310;7.230;2023-08-12T14:49:56;286.02;;;272.48;;
7729;SDS011;3908;52.310;7.230;2023-08-12T14:52:45;338.83;;;322.40;;
7729;SDS011;3908;52.310;7.230;2023-08-12T14:55:32;351.30;;;333.75;;
7729;SDS011;3908;52.310;7.230;2023-08-12T14:58:20;338.00;;;321.20;;
7729;SDS011;3908;52.310;7.230;2023-08-12T15:01:07;323.70;;;308.08;;
7729;SDS011;3908;52.310;7.230;2023-08-12T15:03:54;330.05;;;313.95;;
7729;SDS011;3908;52.310;7.230;2023-08-12T15:06:41;240.73;;;229.82;;
7729;SDS011;3908;52.310;7.230;2023-08-12T15:09:28;328.77;;;312.27;;
7729;SDS011;3908;52.310;7.230;2023-08-12T15:12:15;299.33;;;284.02;;
7729;SDS011;3908;52.310;7.230;2023-08-12T15:15:04;326.15;;;309.95;;
7729;SDS011;3908;52.310;7.230;2023-08-12T15:17:51;267.52;;;255.13;;
7729;SDS011;3908;52.310;7.230;2023-08-12T15:20:38;141.48;;;135.70;;
7729;SDS011;3908;52.310;7.230;2023-08-12T15:23:25;159.25;;;152.52;;
7729;SDS011;3908;52.310;7.230;2023-08-12T15:26:12;151.30;;;145.15;;
7729;SDS011;3908;52.310;7.230;2023-08-12T15:28:59;116.88;;;111.82;;
7729;SDS011;3908;52.310;7.230;2023-08-12T15:31:47;178.88;;;171.20;;
7729;SDS011;3908;52.310;7.230;2023-08-12T15:34:34;152.50;;;146.15;;
7729;SDS011;3908;52.310;7.230;2023-08-12T15:37:21;140.88;;;134.95;;
7729;SDS011;3908;52.310;7.230;2023-08-12T15:40:08;153.60;;;147.13;;
7729;SDS011;3908;52.310;7.230;2023-08-12T15:42:55;133.73;;;127.88;;
7729;SDS011;3908;52.310;7.230;2023-08-12T15:45:42;194.18;;;185.55;;
7729;SDS011;3908;52.310;7.230;2023-08-12T15:48:30;181.75;;;173.65;;
7729;SDS011;3908;52.310;7.230;2023-08-12T15:51:17;172.27;;;164.68;;
7729;SDS011;3908;52.310;7.230;2023-08-12T15:54:04;190.73;;;182.35;;
7729;SDS011;3908;52.310;7.230;2023-08-12T15:56:51;168.88;;;161.48;;
7729;SDS011;3908;52.310;7.230;2023-08-12T15:59:38;229.38;;;218.32;;
7729;SDS011;3908;52.310;7.230;2023-08-12T16:02:25;326.67;;;309.00;;
7729;SDS011;3908;52.310;7.230;2023-08-12T16:05:13;338.67;;;320.00;;
7729;SDS011;3908;52.310;7.230;2023-08-12T16:08:00;265.52;;;252.20;;
7729;SDS011;3908;52.310;7.230;2023-08-12T16:10:47;282.00;;;266.75;;
7729;SDS011;3908;52.310;7.230;2023-08-12T16:13:34;254.90;;;241.13;;
7729;SDS011;3908;52.310;7.230;2023-08-12T16:16:21;320.48;;;302.40;;
7729;SDS011;3908;52.310;7.230;2023-08-12T16:19:08;316.00;;;298.42;;
7729;SDS011;3908;52.310;7.230;2023-08-12T16:21:56;309.10;;;292.38;;
7729;SDS011;3908;52.310;7.230;2023-08-12T16:24:43;416.83;;;390.92;;
7729;SDS011;3908;52.310;7.230;2023-08-12T16:27:31;386.90;;;362.27;;
7729;SDS011;3908;52.310;7.230;2023-08-12T16:30:18;404.20;;;378.38;;
7729;SDS011;3908;52.310;7.230;2023-08-12T16:33:04;437.75;;;410.17;;
7729;SDS011;3908;52.310;7.230;2023-08-12T16:35:51;226.20;;;211.52;;
7729;SDS011;3908;52.310;7.230;2023-08-12T16:38:39;381.40;;;356.90;;